Time;durP1;ratioP1;P1;durP2;ratioP2;P2;SDS_P1;SDS_P2;PMS_P1;PMS_P2;Temp;Humidity;BMP_temperature;BMP_pressure;BME280_temperature;BME280_humidity;BME280_pressure;Samples;Min_cycle;Max_cycle;Signal;HPM_P1;HPM_P2
2021/07/21 00:01:56;;;;;;;10.03;5.30;;;;;;;28.28;100.00;99363.78;1649655;85;21039;-64
2021/07/21 00:04:22;;;;;;;12.53;5.53;;;;;;;28.22;100.00;99363.72;1641080;85;21149;-61
2021/07/21 00:06:49;;;;;;;7.07;5.30;;;;;;;28.18;100.00;99362.01;1649632;85;21000;-63
2021/07/21 00:09:16;;;;;;;11.13;5.67;;;;;;;28.12;100.00;99348.80;1648690;85;22304;-63
2021/07/21 00:14:27;;;;;;;10.83;5.60;;;;;;;28.26;100.00;99344.57;1646550;85;20998;-61
2021/07/21 00:17:03;;;;;;;11.10;6.20;;;;;;;28.23;100.00;99350.57;1648222;85;21032;-63
2021/07/21 00:22:13;;;;;;;11.37;6.13;;;;;;;28.33;100.00;99346.17;1644891;85;21165;-59
2021/07/21 00:24:42;;;;;;;8.87;5.13;;;;;;;28.39;100.00;99347.38;1638739;85;21908;-63
2021/07/21 00:27:09;;;;;;;6.67;4.73;;;;;;;28.34;100.00;99351.00;1650495;85;21522;-63
2021/07/21 00:29:36;;;;;;;9.03;6.10;;;;;;;28.36;100.00;99353.56;1639755;85;21516;-63
2021/07/21 00:32:05;;;;;;;11.07;6.03;;;;;;;28.44;100.00;99360.58;1649676;85;21076;-63
2021/07/21 00:34:32;;;;;;;9.53;5.83;;;;;;;28.52;100.00;99367.78;1648473;85;22114;-63
2021/07/21 00:36:58;;;;;;;12.20;6.30;;;;;;;28.56;100.00;99384.79;1649261;85;21855;-63
2021/07/21 00:39:25;;;;;;;10.53;5.77;;;;;;;28.57;100.00;99389.06;1649622;85;20944;-63
2021/07/21 00:41:52;;;;;;;10.57;5.47;;;;;;;28.60;100.00;99391.89;1649280;85;21032;-62
2021/07/21 00:44:19;;;;;;;11.03;6.10;;;;;;;28.58;100.00;99393.31;1650488;85;21000;-60
2021/07/21 00:46:47;;;;;;;9.37;6.07;;;;;;;28.35;100.00;99394.89;1629440;85;21508;-63
2021/07/21 00:49:14;;;;;;;8.90;5.60;;;;;;;28.36;100.00;99387.08;1649268;85;21079;-63
2021/07/21 00:51:41;;;;;;;6.20;4.70;;;;;;;28.32;100.00;99390.17;1650433;85;21083;-64
2021/07/21 00:54:08;;;;;;;8.73;5.97;;;;;;;28.23;100.00;99386.75;1651995;85;21088;-59
2021/07/21 00:56:35;;;;;;;10.43;5.80;;;;;;;28.30;100.00;99384.36;1649740;85;21077;-63
2021/07/21 00:59:03;;;;;;;8.43;5.53;;;;;;;28.28;100.00;99375.06;1650196;85;22252;-63
2021/07/21 01:01:34;;;;;;;9.37;6.47;;;;;;;28.17;100.00;99371.95;1650418;85;21059;-63
2021/07/21 01:04:03;;;;;;;9.73;6.20;;;;;;;28.11;100.00;99371.91;1629525;85;21084;-62
2021/07/21 01:06:30;;;;;;;11.87;5.80;;;;;;;27.96;100.00;99366.52;1649878;85;22183;-63
2021/07/21 01:08:59;;;;;;;9.27;4.93;;;;;;;27.93;100.00;99361.02;1651734;85;21501;-63
2021/07/21 01:11:48;;;;;;;8.75;5.80;;;;;;;27.96;100.00;99370.55;1651157;85;21144;-63
2021/07/21 01:14:26;;;;;;;11.80;5.87;;;;;;;28.03;100.00;99370.02;1648448;85;20952;-65
2021/07/21 01:17:00;;;;;;;9.13;5.83;;;;;;;27.95;100.00;99368.95;1634372;85;21007;-64
2021/07/21 01:20:04;;;;;;;10.47;5.43;;;;;;;27.96;100.00;99368.39;1590124;87;21020;-64
2021/07/21 01:22:35;;;;;;;8.67;5.77;;;;;;;27.96;100.00;99380.45;1631467;85;21104;-64
2021/07/21 01:25:15;;;;;;;9.37;5.57;;;;;;;27.85;100.00;99391.52;1621915;86;21152;-62
2021/07/21 01:28:02;;;;;;;10.37;6.13;;;;;;;27.84;100.00;99402.01;1642921;85;21550;-64
2021/07/21 01:30:33;;;;;;;12.25;6.65;;;;;;;27.76;100.00;99415.39;1643283;85;21043;-61
2021/07/21 01:33:09;;;;;;;14.70;10.43;;;;;;;27.80;100.00;99417.67;1649958;85;21449;-63
2021/07/21 01:35:46;;;;;;;11.90;7.97;;;;;;;27.71;100.00;99425.70;1652940;85;21104;-66
2021/07/21 01:38:24;;;;;;;12.93;7.10;;;;;;;27.67;100.00;99429.33;1652203;85;21156;-64
2021/07/21 01:40:56;;;;;;;11.97;6.92;;;;;;;27.40;100.00;99414.63;1651891;85;21095;-63
2021/07/21 01:43:29;;;;;;;;;;;;;;;27.25;100.00;99401.72;1654407;85;21018;-63
2021/07/21 01:45:59;;;;;;;14.87;6.70;;;;;;;27.28;100.00;99402.43;1636618;86;20157;-60
2021/07/21 01:48:27;;;;;;;12.20;6.77;;;;;;;27.30;100.00;99397.53;1648397;85;21112;-62
2021/07/21 01:50:55;;;;;;;12.90;6.43;;;;;;;27.49;100.00;99401.22;1654089;85;21619;-62
2021/07/21 01:53:22;;;;;;;10.50;6.20;;;;;;;27.32;100.00;99399.36;1651463;85;21032;-61
2021/07/21 01:55:50;;;;;;;11.00;6.33;;;;;;;27.30;100.00;99396.75;1655430;85;21067;-62
2021/07/21 01:58:18;;;;;;;9.60;6.07;;;;;;;27.21;100.00;99386.61;1654392;85;20982;-60
2021/07/21 02:00:52;;;;;;;10.27;5.70;;;;;;;27.07;100.00;99386.72;1579197;88;22047;-62
2021/07/21 02:03:19;;;;;;;9.87;6.33;;;;;;;26.97;100.00;99386.46;1590443;88;21084;-62
2021/07/21 02:05:50;;;;;;;11.43;6.80;;;;;;;26.86;100.00;99390.56;1683858;83;21011;-62
2021/07/21 02:08:19;;;;;;;11.55;5.72;;;;;;;27.07;100.00;99384.05;1671902;84;20972;-62
2021/07/21 02:10:46;;;;;;;10.10;5.87;;;;;;;26.84;100.00;99386.06;1667521;84;21399;-62
2021/07/21 02:13:17;;;;;;;;;;;;;;;26.86;100.00;99374.52;1653582;84;21380;-62
2021/07/21 02:15:48;;;;;;;9.55;6.05;;;;;;;27.03;100.00;99369.17;1608040;84;21170;-62
2021/07/21 02:18:18;;;;;;;11.13;5.67;;;;;;;27.12;100.00;99359.31;1645816;84;20992;-62
2021/07/21 02:20:48;;;;;;;13.13;9.00;;;;;;;27.30;100.00;99349.37;1632677;85;21537;-63
2021/07/21 02:23:16;;;;;;;16.55;11.55;;;;;;;27.24;100.00;99347.97;1665976;84;21003;-63
2021/07/21 02:25:45;;;;;;;14.65;8.98;;;;;;;27.56;100.00;99336.50;1665897;84;21024;-63
2021/07/21 02:28:14;;;;;;;15.70;8.03;;;;;;;27.68;100.00;99324.58;1669326;83;21319;-61
2021/07/21 02:30:47;;;;;;;17.10;7.17;;;;;;;27.97;100.00;99318.53;1665280;84;21763;-63
2021/07/21 02:33:21;;;;;;;10.20;6.80;;;;;;;27.95;100.00;99301.98;1665737;84;21004;-63
2021/07/21 02:35:48;;;;;;;17.73;6.20;;;;;;;28.12;100.00;99285.84;1656097;84;21470;-63
2021/07/21 02:38:16;;;;;;;12.20;5.87;;;;;;;28.24;100.00;99283.02;1638702;85;21043;-60
2021/07/21 02:40:50;;;;;;;11.40;6.00;;;;;;;28.39;100.00;99289.19;1665336;84;21523;-62
2021/07/21 02:43:21;;;;;;;11.63;6.33;;;;;;;28.51;100.00;99316.63;1662637;84;21528;-62
2021/07/21 02:45:48;;;;;;;8.97;5.17;;;;;;;28.56;100.00;99325.80;1661991;84;21027;-63
2021/07/21 02:48:14;;;;;;;8.07;6.20;;;;;;;28.55;100.00;99343.80;1663590;84;21046;-63
2021/07/21 02:50:47;;;;;;;12.60;6.20;;;;;;;28.73;100.00;99338.33;1666750;84;21407;-61
2021/07/21 02:53:22;;;;;;;11.15;6.33;;;;;;;28.65;100.00;99333.81;1669638;84;21802;-62
2021/07/21 02:56:05;;;;;;;10.67;6.53;;;;;;;28.65;100.00;99317.73;1644937;84;21122;-61
2021/07/21 02:58:46;;;;;;;8.33;6.37;;;;;;;28.93;100.00;99301.88;1654577;84;21452;-63
2021/07/21 03:01:13;;;;;;;10.00;6.43;;;;;;;29.23;100.00;99289.95;1658619;83;21075;-62
2021/07/21 03:03:42;;;;;;;12.60;6.07;;;;;;;29.23;100.00;99267.70;1611129;87;21790;-62
2021/07/21 03:06:09;;;;;;;11.67;6.63;;;;;;;29.14;100.00;99246.33;1646145;86;21600;-62
2021/07/21 03:08:42;;;;;;;10.40;5.83;;;;;;;29.31;100.00;99224.66;1645293;86;20997;-61
2021/07/21 03:11:13;;;;;;;16.57;5.93;;;;;;;29.75;100.00;99218.24;1626408;86;21565;-61
2021/07/21 03:13:51;;;;;;;13.43;6.77;;;;;;;30.28;100.00;99218.32;1642990;86;21030;-60
2021/07/21 03:16:23;;;;;;;10.30;5.72;;;;;;;30.66;100.00;99216.52;1613454;87;21385;-62
2021/07/21 03:18:56;;;;;;;17.67;7.72;;;;;;;30.88;100.00;99199.64;1609716;87;21817;-65
2021/07/21 03:21:25;;;;;;;9.65;5.97;;;;;;;31.28;97.41;99201.41;1594803;87;21042;-61
2021/07/21 03:23:53;;;;;;;7.40;5.97;;;;;;;31.61;91.20;99207.26;1596013;88;21055;-64
2021/07/21 03:26:22;;;;;;;11.12;6.65;;;;;;;31.52;90.51;99208.55;1575986;89;21528;-64
2021/07/21 03:28:49;;;;;;;10.00;6.60;;;;;;;31.20;91.67;99206.62;1596076;89;21054;-64
2021/07/21 03:31:17;;;;;;;9.33;6.22;;;;;;;30.90;94.75;99204.88;1569930;89;21667;-63
2021/07/21 03:33:45;;;;;;;8.80;5.85;;;;;;;30.41;100.00;99198.33;1575747;89;21469;-60
2021/07/21 03:36:13;;;;;;;13.13;6.80;;;;;;;30.02;100.00;99200.64;1595807;88;21572;-65
2021/07/21 03:38:48;;;;;;;10.35;6.28;;;;;;;29.58;100.00;99209.05;1606670;88;21659;-61
2021/07/21 03:41:16;;;;;;;9.83;5.87;;;;;;;29.39;100.00;99207.44;1588726;88;21100;-65
2021/07/21 03:43:43;;;;;;;9.00;6.27;;;;;;;29.40;100.00;99208.47;1600328;87;22001;-64
2021/07/21 03:46:11;;;;;;;15.60;7.67;;;;;;;29.54;100.00;99212.16;1600020;88;21076;-67
2021/07/21 03:48:38;;;;;;;10.58;6.95;;;;;;;30.16;100.00;99215.64;1599112;87;21135;-67
2021/07/21 03:51:25;;;;;;;11.33;7.35;;;;;;;30.75;100.00;99215.83;1590533;88;21029;-66
2021/07/21 03:54:12;;;;;;;12.37;7.80;;;;;;;30.95;100.00;99220.80;1548461;91;21530;-65
2021/07/21 03:56:44;;;;;;;14.50;7.50;;;;;;;31.20;100.00;99221.42;1551295;90;22061;-66
2021/07/21 03:59:15;;;;;;;14.65;7.47;;;;;;;31.44;100.00;99217.03;1577859;88;21481;-64
2021/07/21 04:01:41;;;;;;;11.78;7.30;;;;;;;31.64;100.00;99223.30;1601465;87;21058;-67
2021/07/21 04:04:07;;;;;;;13.78;7.50;;;;;;;31.53;100.00;99227.08;1601769;89;21355;-67
2021/07/21 04:06:34;;;;;;;11.53;7.12;;;;;;;31.79;100.00;99225.77;1600006;88;21606;-62
2021/07/21 04:09:06;;;;;;;18.02;7.65;;;;;;;32.12;95.96;99226.70;1599146;89;22125;-71
2021/07/21 04:11:34;;;;;;;13.60;6.95;;;;;;;32.54;89.07;99222.78;1573096;89;21071;-74
2021/07/21 04:14:04;;;;;;;11.53;7.03;;;;;;;32.79;83.72;99225.98;1588092;88;20992;-68
2021/07/21 04:16:35;;;;;;;12.63;7.28;;;;;;;32.65;83.71;99222.43;1590514;87;21051;-69
2021/07/21 04:19:04;;;;;;;10.70;6.78;;;;;;;32.51;84.86;99223.52;1580657;89;21114;-66
2021/07/21 04:21:32;;;;;;;12.65;7.45;;;;;;;32.50;87.03;99231.38;1596165;88;21161;-67
2021/07/21 04:24:00;;;;;;;11.65;7.30;;;;;;;32.48;86.43;99227.50;1589647;89;21054;-68
2021/07/21 04:26:26;;;;;;;17.30;7.08;;;;;;;32.64;86.06;99222.23;1588228;89;21046;-67
2021/07/21 04:28:54;;;;;;;13.50;7.20;;;;;;;32.56;87.42;99216.48;1588832;88;21393;-67
2021/07/21 04:31:27;;;;;;;10.90;6.35;;;;;;;32.56;87.03;99216.48;1587971;88;21608;-68
2021/07/21 04:33:59;;;;;;;10.72;7.45;;;;;;;32.57;87.97;99213.98;1570832;89;21851;-67
2021/07/21 04:36:26;;;;;;;11.38;7.58;;;;;;;32.51;88.28;99213.30;1589374;88;21089;-67
2021/07/21 04:38:53;;;;;;;14.20;7.75;;;;;;;32.19;91.16;99210.11;1589746;88;21066;-62
2021/07/21 04:41:31;;;;;;;14.55;8.18;;;;;;;32.19;91.16;99210.11;1587375;88;21957;-68
2021/07/21 04:44:05;;;;;;;15.20;8.55;;;;;;;32.17;96.75;99201.61;1586821;88;21009;-69
2021/07/21 04:46:34;;;;;;;14.20;8.25;;;;;;;32.31;95.80;99202.45;1589612;89;21944;-68
2021/07/21 04:49:03;;;;;;;14.10;7.17;;;;;;;32.46;92.92;99206.25;1587721;88;21020;-68
2021/07/21 04:51:30;;;;;;;11.40;8.13;;;;;;;32.53;93.32;99206.40;1588919;89;21082;-68
2021/07/21 04:54:04;;;;;;;12.18;7.03;;;;;;;32.59;90.11;99209.03;1587444;90;21485;-70
2021/07/21 04:56:33;;;;;;;9.43;6.33;;;;;;;32.71;90.66;99212.14;1588316;88;21067;-64
2021/07/21 04:59:00;;;;;;;16.50;7.37;;;;;;;32.68;88.83;99208.23;1591266;88;21594;-67
2021/07/21 05:01:28;;;;;;;11.73;7.00;;;;;;;32.81;83.33;99209.45;1590188;89;20979;-68
2021/07/21 05:03:55;;;;;;;8.75;6.60;;;;;;;32.89;82.43;99215.96;1588552;88;21048;-68
2021/07/21 05:06:39;;;;;;;10.50;6.97;;;;;;;32.87;83.76;99207.42;1590101;89;21012;-68
2021/07/21 05:09:07;;;;;;;12.13;6.70;;;;;;;32.90;79.55;99213.47;1588938;89;20997;-69
2021/07/21 05:11:39;;;;;;;8.90;6.10;;;;;;;33.18;77.89;99216.48;1587909;89;21167;-68
2021/07/21 05:14:06;;;;;;;10.08;7.12;;;;;;;33.97;71.87;99221.78;1587882;90;20928;-61
2021/07/21 05:16:36;;;;;;;12.25;6.00;;;;;;;34.88;68.62;99220.62;1587590;88;21003;-68
2021/07/21 05:19:03;;;;;;;10.80;6.08;;;;;;;35.77;54.66;99216.58;1589591;88;21047;-61
2021/07/21 05:21:31;;;;;;;12.82;5.97;;;;;;;36.20;50.66;99219.55;1586805;90;21134;-68
2021/07/21 05:23:58;;;;;;;12.28;7.10;;;;;;;36.19;47.35;99210.63;1587802;90;21130;-68
2021/07/21 05:26:26;;;;;;;10.63;5.90;;;;;;;35.68;47.16;99214.19;1588851;89;21079;-61
2021/07/21 05:28:54;;;;;;;11.73;7.12;;;;;;;35.17;48.69;99212.22;1586084;88;21573;-67
2021/07/21 05:31:35;;;;;;;11.55;7.25;;;;;;;34.67;50.71;99216.35;1575501;89;21106;-68
2021/07/21 05:34:19;;;;;;;16.07;8.15;;;;;;;34.17;55.32;99219.18;1587594;88;21430;-64
2021/07/21 05:36:46;;;;;;;11.45;7.12;;;;;;;34.16;58.73;99210.87;1600804;88;21635;-62
2021/07/21 05:39:16;;;;;;;10.60;6.50;;;;;;;34.47;59.07;99208.34;1635888;86;21476;-69
2021/07/21 05:41:44;;;;;;;8.23;6.22;;;;;;;35.21;56.13;99208.97;1607001;88;21076;-68
2021/07/21 05:44:12;;;;;;;7.80;5.65;;;;;;;35.97;52.24;99211.66;1570192;89;21557;-61
2021/07/21 05:46:40;;;;;;;12.80;6.12;;;;;;;36.68;47.64;99207.16;1569175;89;21115;-63
2021/07/21 05:49:07;;;;;;;14.75;5.87;;;;;;;37.53;46.94;99207.06;1570904;89;22209;-67
2021/07/21 05:51:39;;;;;;;10.32;6.37;;;;;;;38.53;43.19;99209.50;1586133;90;21051;-67
2021/07/21 05:54:12;;;;;;;11.60;5.67;;;;;;;39.06;40.56;99201.03;1583742;88;21024;-61
2021/07/21 05:56:41;;;;;;;11.70;5.70;;;;;;;39.48;38.59;99205.19;1588050;89;21575;-66
2021/07/21 05:59:10;;;;;;;9.28;5.47;;;;;;;39.43;38.00;99202.88;1588310;90;21980;-67
2021/07/21 06:01:38;;;;;;;12.60;6.50;;;;;;;39.17;37.74;99203.65;1575114;89;22356;-66
2021/07/21 06:04:05;;;;;;;10.20;5.65;;;;;;;39.23;38.21;99206.14;1608349;87;21020;-67
2021/07/21 06:06:53;;;;;;;8.83;5.70;;;;;;;38.81;39.50;99208.02;1608741;88;21439;-67
2021/07/21 06:09:28;;;;;;;11.90;6.03;;;;;;;38.73;41.57;99203.76;1602717;89;21027;-66
2021/07/21 06:12:00;;;;;;;12.10;6.37;;;;;;;38.81;40.75;99214.05;1605106;87;20974;-66
2021/07/21 06:14:31;;;;;;;20.17;6.55;;;;;;;38.57;38.97;99213.78;1605041;87;21165;-67
2021/07/21 06:17:01;;;;;;;10.95;6.25;;;;;;;38.37;39.78;99212.11;1604266;87;21054;-66
2021/07/21 06:19:29;;;;;;;10.23;5.95;;;;;;;38.33;40.27;99207.83;1604822;89;20951;-67
2021/07/21 06:21:58;;;;;;;11.48;5.92;;;;;;;38.33;40.25;99209.19;1604493;87;21464;-66
2021/07/21 06:24:27;;;;;;;10.28;6.47;;;;;;;38.38;40.05;99216.40;1589189;89;21936;-66
2021/07/21 06:26:55;;;;;;;12.95;5.83;;;;;;;38.19;40.25;99214.13;1606181;87;21225;-66
2021/07/21 06:29:35;;;;;;;;;;;;;;;38.16;41.61;99220.35;1607606;87;21583;-60
2021/07/21 06:32:04;;;;;;;11.00;5.90;;;;;;;38.22;41.62;99216.80;1605649;89;21170;-66
2021/07/21 06:34:31;;;;;;;11.30;7.08;;;;;;;38.36;41.81;99212.52;1605470;87;21404;-67
2021/07/21 06:36:59;;;;;;;11.40;6.72;;;;;;;38.56;40.02;99216.87;1604707;87;21019;-67
2021/07/21 06:39:26;;;;;;;11.55;6.53;;;;;;;38.74;39.17;99209.98;1604462;89;21088;-66
2021/07/21 06:41:55;;;;;;;11.22;6.53;;;;;;;39.04;38.58;99218.36;1604885;87;21093;-63
2021/07/21 06:44:21;;;;;;;7.25;5.75;;;;;;;39.25;38.21;99218.02;1606036;87;21055;-64
2021/07/21 06:46:49;;;;;;;8.20;5.87;;;;;;;39.51;37.69;99217.40;1597159;89;20986;-67
2021/07/21 06:49:19;;;;;;;7.62;5.37;;;;;;;39.93;36.57;99217.40;1604665;87;20920;-67
2021/07/21 06:51:46;;;;;;;7.58;5.53;;;;;;;40.50;34.63;99213.98;1605541;89;21509;-61
2021/07/21 06:54:14;;;;;;;9.93;4.78;;;;;;;41.04;33.07;99205.26;1605721;87;21100;-67
2021/07/21 06:56:59;;;;;;;11.38;4.87;;;;;;;41.61;33.54;99209.59;1599423;87;20947;-67
2021/07/21 06:59:30;;;;;;;9.13;5.20;;;;;;;42.80;31.00;99202.67;1602603;87;21069;-62
2021/07/21 07:01:57;;;;;;;9.33;5.10;;;;;;;43.80;29.22;99208.41;1599482;87;21115;-68
2021/07/21 07:04:28;;;;;;;10.25;5.17;;;;;;;44.28;27.91;99207.29;1568957;90;21166;-67
2021/07/21 07:07:13;;;;;;;15.65;5.58;;;;;;;44.95;26.99;99196.80;1567941;90;21071;-68
2021/07/21 07:09:59;;;;;;;11.50;5.00;;;;;;;45.67;25.84;99195.94;1608477;88;21474;-68
2021/07/21 07:12:31;;;;;;;8.60;5.40;;;;;;;45.99;24.96;99196.15;1601867;88;21624;-63
2021/07/21 07:14:59;;;;;;;6.70;4.67;;;;;;;46.03;23.85;99196.81;1607163;87;21300;-61
2021/07/21 07:17:27;;;;;;;11.18;5.83;;;;;;;45.97;24.55;99194.47;1612149;88;21590;-67
2021/07/21 07:19:54;;;;;;;11.55;6.53;;;;;;;46.07;24.88;99200.20;1615091;87;21029;-65
2021/07/21 07:22:21;;;;;;;9.45;5.03;;;;;;;46.18;24.40;99199.00;1615687;88;21075;-67
2021/07/21 07:24:47;;;;;;;9.00;5.53;;;;;;;46.01;23.38;99193.73;1600570;88;21008;-64
2021/07/21 07:27:14;;;;;;;8.80;5.50;;;;;;;45.68;23.61;99189.20;1595782;88;21166;-65
2021/07/21 07:29:40;;;;;;;8.93;5.37;;;;;;;45.89;24.58;99189.69;1573793;90;21613;-67
2021/07/21 07:32:07;;;;;;;7.80;4.70;;;;;;;46.12;23.74;99196.70;1612361;88;21026;-68
2021/07/21 07:34:35;;;;;;;8.35;5.80;;;;;;;46.14;23.26;99198.38;1607083;87;21093;-66
2021/07/21 07:37:02;;;;;;;7.03;4.60;;;;;;;46.26;22.94;99201.08;1614456;87;21140;-62
2021/07/21 07:39:29;;;;;;;8.43;4.95;;;;;;;46.28;22.99;99194.50;1612221;87;21388;-69
2021/07/21 07:41:59;;;;;;;7.80;4.42;;;;;;;46.22;23.28;99190.81;1601650;87;21640;-67
2021/07/21 07:44:24;;;;;;;10.43;5.60;;;;;;;46.32;23.32;99188.84;1602852;88;21028;-68
2021/07/21 07:46:51;;;;;;;6.83;5.58;;;;;;;46.31;22.78;99194.21;1616534;88;21560;-66
2021/07/21 07:49:17;;;;;;;7.62;4.78;;;;;;;46.04;22.36;99210.73;1607732;88;21563;-63
2021/07/21 07:51:44;;;;;;;7.30;4.62;;;;;;;45.75;22.18;99208.84;1604638;88;21142;-66
2021/07/21 07:54:11;;;;;;;8.95;5.10;;;;;;;45.35;22.71;99208.03;1609220;86;21160;-67
2021/07/21 07:56:38;;;;;;;8.75;4.22;;;;;;;44.63;23.56;99217.21;1603413;88;21066;-65
2021/07/21 07:59:04;;;;;;;10.15;4.62;;;;;;;43.93;24.59;99220.83;1613417;87;21089;-61
2021/07/21 08:01:32;;;;;;;9.33;5.03;;;;;;;42.98;26.00;99220.08;1609329;88;21025;-67
2021/07/21 08:03:59;;;;;;;11.43;5.28;;;;;;;42.16;27.40;99234.93;1596583;87;21012;-66
2021/07/21 08:06:25;;;;;;;45.85;9.43;;;;;;;41.51;28.41;99268.17;1601916;87;21146;-64
2021/07/21 08:08:53;;;;;;;25.77;7.40;;;;;;;40.63;30.00;99264.20;1603898;89;21011;-64
2021/07/21 13:49:41;;;;;;;15.20;13.80;;;;;;;26.89;100.00;99093.09;1962026;72;23072;-72
2021/07/21 13:52:10;;;;;;;13.23;12.03;;;;;;;28.85;100.00;99078.98;1908577;74;21032;-70
2021/07/21 13:54:39;;;;;;;13.47;12.27;;;;;;;28.98;100.00;99081.17;1927005;72;21111;-66
2021/07/21 13:57:09;;;;;;;13.90;12.60;;;;;;;28.38;100.00;99079.11;1881131;74;21594;-64
2021/07/21 13:59:37;;;;;;;12.50;11.10;;;;;;;28.80;100.00;99068.48;1877089;75;21058;-65
2021/07/21 14:02:05;;;;;;;15.43;13.93;;;;;;;28.51;100.00;99069.98;1837010;76;21321;-64
2021/07/21 14:04:31;;;;;;;15.47;14.07;;;;;;;28.72;100.00;99063.23;1858815;76;21045;-64
2021/07/21 14:06:59;;;;;;;14.40;13.07;;;;;;;27.98;100.00;99083.59;1858854;76;21934;-63
2021/07/21 14:09:26;;;;;;;13.45;11.70;;;;;;;28.30;100.00;99095.47;1850308;76;20891;-63
2021/07/21 14:11:53;;;;;;;13.03;11.88;;;;;;;28.27;100.00;99088.86;1856802;75;21026;-62
2021/07/21 14:14:21;;;;;;;12.63;11.53;;;;;;;28.39;100.00;99088.72;1847379;75;21006;-63
2021/07/21 14:16:49;;;;;;;12.25;11.20;;;;;;;28.39;100.00;99088.16;1854869;75;20911;-60
2021/07/21 14:19:15;;;;;;;11.30;10.30;;;;;;;28.48;100.00;99096.11;1868054;75;21106;-60
2021/07/21 14:21:43;;;;;;;11.48;10.40;;;;;;;28.14;100.00;99083.99;1856898;76;21005;-61
2021/07/21 14:24:10;;;;;;;11.83;10.70;;;;;;;27.87;100.00;99091.23;1857328;76;20865;-62
2021/07/21 14:26:37;;;;;;;12.25;11.03;;;;;;;27.86;100.00;99095.02;1850412;75;21453;-64
2021/07/21 14:29:05;;;;;;;10.17;9.33;;;;;;;27.77;100.00;99087.59;1874013;75;20975;-62
2021/07/21 14:31:32;;;;;;;11.00;10.00;;;;;;;27.59;100.00;99093.60;1850265;75;21163;-61
2021/07/21 14:33:59;;;;;;;11.15;10.20;;;;;;;27.64;100.00;99093.41;1860494;75;21492;-61
2021/07/21 14:36:26;;;;;;;11.90;10.80;;;;;;;27.44;100.00;99096.28;1846359;76;21574;-62
2021/07/21 14:38:55;;;;;;;12.30;11.10;;;;;;;27.46;100.00;99094.61;1845374;76;21511;-62
2021/07/21 14:41:27;;;;;;;12.77;11.47;;;;;;;27.73;100.00;99097.36;1845288;75;21368;-63
2021/07/21 17:40:09;;;;;;;13.73;8.23;;;;;;;23.43;100.00;99220.80;1825781;77;26839;-68
2021/07/21 17:57:33;;;;;;;11.33;7.77;;;;;;;24.15;100.00;99244.22;1821674;78;28403;-70
2021/07/21 18:00:00;;;;;;;13.73;11.30;;;;;;;23.98;100.00;99258.93;1796302;79;21323;-70
2021/07/21 18:02:27;;;;;;;12.80;8.47;;;;;;;23.98;100.00;99264.25;1787387;79;21759;-70
2021/07/21 18:04:54;;;;;;;9.90;8.47;;;;;;;24.26;100.00;99265.02;1808374;78;20931;-70
2021/07/21 18:07:21;;;;;;;11.67;9.00;;;;;;;24.25;100.00;99269.33;1796532;78;21407;-72
2021/07/21 21:12:27;;;;;;;13.20;11.90;;;;;;;21.49;100.00;99208.27;1818561;78;26646;-70
2021/07/21 21:14:54;;;;;;;12.00;10.80;;;;;;;21.72;100.00;99214.66;1781756;80;21022;-73
2021/07/21 21:17:20;;;;;;;11.67;10.47;;;;;;;21.66;100.00;99220.28;1781510;80;21097;-74
2021/07/21 21:19:47;;;;;;;11.30;10.13;;;;;;;21.73;100.00;99231.36;1781926;80;21039;-72
2021/07/21 21:22:13;;;;;;;11.00;9.90;;;;;;;21.82;100.00;99234.96;1781213;80;20915;-74
2021/07/21 21:24:40;;;;;;;12.33;9.30;;;;;;;21.90;100.00;99235.69;1781329;80;21257;-74
2021/07/21 21:27:07;;;;;;;9.77;8.80;;;;;;;22.00;100.00;99228.14;1781235;79;20955;-73
2021/07/21 21:29:34;;;;;;;10.10;9.10;;;;;;;22.07;100.00;99232.56;1781874;80;21229;-74
2021/07/21 21:32:00;;;;;;;11.63;10.03;;;;;;;22.05;100.00;99231.53;1780839;80;21036;-74
2021/07/21 21:34:27;;;;;;;12.07;9.83;;;;;;;22.10;100.00;99226.16;1781859;80;21225;-74
2021/07/21 21:36:53;;;;;;;11.93;10.70;;;;;;;22.37;100.00;99219.48;1781428;80;20966;-71
2021/07/21 21:39:20;;;;;;;12.43;11.20;;;;;;;22.50;100.00;99202.03;1781595;80;20955;-74
2021/07/21 21:41:46;;;;;;;12.20;11.00;;;;;;;22.61;100.00;99188.86;1781657;80;21175;-72
2021/07/21 21:44:14;;;;;;;12.93;11.53;;;;;;;22.71;100.00;99196.69;1781291;80;20916;-73
2021/07/21 21:46:41;;;;;;;11.00;9.90;;;;;;;22.68;100.00;99183.19;1781933;80;20897;-70
2021/07/21 21:49:07;;;;;;;14.80;11.03;;;;;;;22.86;100.00;99180.27;1781088;80;21022;-70
2021/07/21 21:51:34;;;;;;;11.23;10.17;;;;;;;22.96;100.00;99170.84;1781403;80;21241;-71
2021/07/21 21:54:00;;;;;;;15.03;10.77;;;;;;;22.96;100.00;99164.19;1780651;80;21092;-71
2021/07/21 21:56:27;;;;;;;12.07;10.83;;;;;;;23.14;100.00;99158.01;1781791;80;21006;-70
2021/07/21 21:58:53;;;;;;;12.87;11.00;;;;;;;23.21;100.00;99160.30;1781817;80;21615;-70
2021/07/21 22:01:20;;;;;;;12.07;10.73;;;;;;;22.98;100.00;99161.47;1780610;79;20889;-70
2021/07/21 22:03:46;;;;;;;11.93;10.70;;;;;;;23.18;100.00;99160.88;1781464;80;20999;-70
2021/07/21 22:06:13;;;;;;;12.50;11.20;;;;;;;23.13;100.00;99167.08;1780765;80;21139;-69
2021/07/21 22:08:40;;;;;;;13.50;11.93;;;;;;;23.14;100.00;99172.63;1781657;80;21518;-70
2021/07/21 22:11:06;;;;;;;14.90;11.60;;;;;;;23.07;100.00;99174.91;1777750;79;21635;-69
2021/07/21 22:13:33;;;;;;;13.80;11.57;;;;;;;22.92;100.00;99175.94;1770513;80;21038;-70
2021/07/21 22:16:00;;;;;;;12.73;11.40;;;;;;;22.89;100.00;99173.83;1770892;79;20913;-70
2021/07/21 22:18:29;;;;;;;12.57;11.23;;;;;;;22.87;100.00;99169.87;1770414;80;22265;-70
2021/07/21 22:20:56;;;;;;;14.03;11.30;;;;;;;22.78;100.00;99165.77;1771027;80;21475;-69
2021/07/21 22:23:25;;;;;;;12.67;11.40;;;;;;;22.80;100.00;99159.61;1769890;80;20956;-69
2021/07/21 22:25:58;;;;;;;12.27;11.03;;;;;;;22.27;100.00;99163.31;1770342;81;20972;-68
2021/07/21 22:28:28;;;;;;;12.73;11.43;;;;;;;22.30;100.00;99156.65;1770163;81;20885;-68
2021/07/21 22:31:09;;;;;;;11.03;9.25;;;;;;;22.40;100.00;99161.04;1770108;80;21225;-69
2021/07/21 22:33:43;;;;;;;13.30;11.90;;;;;;;22.34;100.00;99166.95;1735853;82;20857;-68
2021/07/21 22:36:27;;;;;;;12.13;10.83;;;;;;;22.37;100.00;99171.69;1735137;82;21573;-69
2021/07/21 22:38:54;;;;;;;13.37;12.17;;;;;;;22.39;100.00;99172.72;1704772;84;21344;-70
2021/07/21 22:41:21;;;;;;;13.50;12.13;;;;;;;22.34;100.00;99165.62;1735652;81;21039;-69
2021/07/21 22:43:48;;;;;;;11.97;10.70;;;;;;;22.52;100.00;99163.50;1735156;82;21221;-70
2021/07/21 22:46:15;;;;;;;12.63;11.33;;;;;;;22.45;100.00;99163.61;1704725;83;21699;-70
2021/07/21 22:48:43;;;;;;;15.03;10.40;;;;;;;22.47;100.00;99163.58;1735065;82;20947;-70
2021/07/21 22:51:10;;;;;;;12.00;10.77;;;;;;;22.50;100.00;99155.05;1735727;82;21119;-69
2021/07/21 22:53:36;;;;;;;11.27;10.07;;;;;;;22.57;100.00;99158.64;1715772;82;20944;-69
2021/07/21 22:56:10;;;;;;;11.50;10.33;;;;;;;22.58;100.00;99154.93;1704424;84;21125;-70
2021/07/21 22:58:39;;;;;;;12.00;10.60;;;;;;;22.66;100.00;99160.91;1734916;82;21417;-71
2021/07/21 23:01:33;;;;;;;13.57;11.20;;;;;;;22.74;100.00;99164.78;1734839;82;21093;-72
2021/07/21 23:04:56;;;;;;;12.03;10.83;;;;;;;22.75;100.00;99176.97;1732577;82;20979;-70
2021/07/21 23:08:19;;;;;;;15.00;11.07;;;;;;;22.75;100.00;99172.98;1704594;84;21011;-71
2021/07/21 23:11:42;;;;;;;13.50;10.67;;;;;;;22.78;100.00;99169.76;1734861;80;21152;-70
2021/07/21 23:15:04;;;;;;;11.77;9.83;;;;;;;22.36;100.00;99173.31;1734716;81;20960;-71
2021/07/21 23:17:30;;;;;;;14.57;11.00;;;;;;;22.42;100.00;99179.56;1724379;83;20985;-71
2021/07/21 23:19:58;;;;;;;13.13;10.83;;;;;;;22.51;100.00;99176.53;1725081;83;21080;-71
2021/07/21 23:22:25;;;;;;;12.13;10.63;;;;;;;22.61;100.00;99173.47;1725034;83;21005;-71
2021/07/21 23:24:52;;;;;;;12.70;11.43;;;;;;;22.76;100.00;99168.70;1725046;83;21095;-70
2021/07/21 23:27:19;;;;;;;12.10;10.83;;;;;;;22.70;100.00;99173.08;1725478;82;21003;-70
2021/07/21 23:29:45;;;;;;;11.73;10.07;;;;;;;22.81;100.00;99173.95;1724811;83;20976;-68
2021/07/21 23:32:13;;;;;;;11.27;9.80;;;;;;;22.84;100.00;99183.19;1724964;83;21528;-70
2021/07/21 23:34:40;;;;;;;12.03;10.67;;;;;;;22.98;100.00;99195.23;1725156;83;21020;-70